Time;durP1;ratioP1;P1;durP2;ratioP2;P2;SDS_P1;SDS_P2;PMS_P1;PMS_P2;Temp;Humidity;BMP_temperature;BMP_pressure;BME280_temperature;BME280_humidity;BME280_pressure;Samples;Min_cycle;Max_cycle;Signal;HPM_P1;HPM_P2
2021/11/16 00:00:37;;;;;;;24.60;13.30;;;7.80;99.90;;;;;;5102875;28;20473;-80
2021/11/16 00:03:04;;;;;;;25.80;13.73;;;8.00;99.90;;;;;;5120647;28;20402;-79
2021/11/16 00:05:31;;;;;;;20.73;13.37;;;8.10;99.90;;;;;;5120671;28;20464;-80
2021/11/16 00:07:58;;;;;;;27.73;13.70;;;7.90;99.90;;;;;;5120570;28;20405;-80
2021/11/16 00:10:24;;;;;;;28.13;14.53;;;7.70;99.90;;;;;;5120339;28;20396;-80
2021/11/16 00:12:51;;;;;;;27.00;14.77;;;7.70;99.90;;;;;;5119915;28;20388;-81
2021/11/16 00:15:17;;;;;;;44.57;15.17;;;7.90;99.90;;;;;;5120635;28;20368;-79
2021/11/16 00:17:43;;;;;;;30.03;13.17;;;7.70;99.90;;;;;;5120551;28;20433;-81
2021/11/16 00:20:13;;;;;;;29.73;13.80;;;7.60;99.90;;;;;;5089590;28;20525;-80
2021/11/16 00:22:40;;;;;;;22.97;13.60;;;7.60;99.90;;;;;;5099744;28;20289;-81
2021/11/16 00:25:21;;;;;;;25.90;15.53;;;7.70;99.90;;;;;;5100329;28;20451;-81
2021/11/16 00:27:48;;;;;;;29.30;15.03;;;7.80;99.90;;;;;;5099824;28;20475;-80
2021/11/16 00:30:15;;;;;;;26.17;14.03;;;8.00;99.90;;;;;;5100167;28;20471;-81
2021/11/16 00:32:42;;;;;;;28.80;14.10;;;8.00;99.90;;;;;;5081346;28;20420;-81
2021/11/16 00:35:08;;;;;;;23.87;14.93;;;8.20;99.90;;;;;;5081206;28;20410;-81
2021/11/16 00:37:35;;;;;;;25.27;12.77;;;8.30;99.90;;;;;;5099620;28;20416;-81
2021/11/16 00:40:05;;;;;;;20.87;13.07;;;8.30;99.90;;;;;;5099872;28;20726;-81
2021/11/16 00:42:31;;;;;;;29.57;15.90;;;8.30;99.90;;;;;;5099482;28;20455;-81
2021/11/16 00:44:57;;;;;;;30.33;15.77;;;8.30;99.90;;;;;;5099697;28;20452;-81
2021/11/16 00:47:23;;;;;;;27.90;15.23;;;8.20;99.90;;;;;;5099006;28;20408;-80
2021/11/16 00:49:51;;;;;;;25.73;13.47;;;8.30;99.90;;;;;;5099270;28;20364;-81
2021/11/16 00:52:17;;;;;;;27.67;14.40;;;8.40;99.90;;;;;;5064324;28;20401;-81
2021/11/16 00:54:43;;;;;;;23.53;14.97;;;8.40;99.90;;;;;;5100461;28;20405;-81
2021/11/16 00:57:09;;;;;;;22.73;14.53;;;8.40;99.90;;;;;;5100597;28;20372;-81
2021/11/16 00:59:35;;;;;;;30.87;15.40;;;8.50;99.90;;;;;;5100916;28;20404;-81
2021/11/16 01:02:01;;;;;;;21.00;12.00;;;8.50;99.90;;;;;;5098736;28;20226;-80
2021/11/16 01:04:30;;;;;;;23.37;13.77;;;8.50;99.90;;;;;;5119319;28;20219;-79
2021/11/16 01:06:56;;;;;;;30.10;13.93;;;8.50;99.90;;;;;;5102006;28;20412;-80
2021/11/16 01:09:24;;;;;;;26.03;14.10;;;8.50;99.90;;;;;;5118798;28;20405;-81
2021/11/16 01:11:52;;;;;;;23.63;15.73;;;8.40;99.90;;;;;;5098936;28;20403;-81
2021/11/16 01:14:19;;;;;;;26.67;15.80;;;8.40;99.90;;;;;;5116482;28;20397;-80
2021/11/16 01:16:45;;;;;;;28.23;17.17;;;8.50;99.90;;;;;;5099981;28;20356;-81
2021/11/16 01:19:11;;;;;;;30.20;16.30;;;8.50;99.90;;;;;;5100192;28;20433;-81
2021/11/16 01:21:37;;;;;;;23.73;11.43;;;8.50;99.90;;;;;;5101121;28;20202;-81
2021/11/16 01:24:05;;;;;;;23.37;14.73;;;8.50;99.90;;;;;;5116698;28;20391;-81
2021/11/16 01:26:32;;;;;;;22.13;13.60;;;8.50;99.90;;;;;;5114623;28;20437;-81
2021/11/16 01:29:00;;;;;;;29.53;14.97;;;8.50;99.90;;;;;;5092187;28;20409;-82
2021/11/16 01:31:27;;;;;;;24.13;13.60;;;8.50;99.90;;;;;;5080305;28;20372;-81
2021/11/16 01:33:56;;;;;;;29.97;15.13;;;8.50;99.90;;;;;;5114234;28;20359;-81
2021/11/16 01:36:23;;;;;;;24.93;14.97;;;8.50;99.90;;;;;;5114329;28;20409;-81
2021/11/16 01:38:51;;;;;;;28.80;13.53;;;8.40;99.90;;;;;;5114209;28;20380;-81
2021/11/16 01:41:18;;;;;;;29.03;16.23;;;8.40;99.90;;;;;;5114090;28;20405;-81
2021/11/16 01:43:44;;;;;;;26.07;14.03;;;8.40;99.90;;;;;;5113819;28;20414;-81
2021/11/16 01:46:14;;;;;;;22.57;14.97;;;8.40;99.90;;;;;;5113366;28;20440;-81
2021/11/16 01:48:43;;;;;;;23.67;14.63;;;8.40;99.90;;;;;;5113688;28;20398;-82
2021/11/16 01:51:09;;;;;;;26.93;13.87;;;8.30;99.90;;;;;;5113986;28;20376;-81
2021/11/16 01:53:35;;;;;;;24.23;14.70;;;8.30;99.90;;;;;;5113756;28;20397;-81
2021/11/16 01:56:03;;;;;;;27.27;16.43;;;8.30;99.90;;;;;;5114236;28;20401;-81
2021/11/16 01:58:28;;;;;;;37.93;16.70;;;8.30;99.90;;;;;;5096055;28;20828;-81
2021/11/16 02:00:55;;;;;;;30.23;16.40;;;8.30;99.90;;;;;;5113948;28;20423;-81
2021/11/16 02:03:23;;;;;;;28.53;16.30;;;8.30;99.90;;;;;;5113847;28;20177;-81
2021/11/16 02:05:52;;;;;;;29.50;15.93;;;8.30;99.90;;;;;;5113434;28;20415;-81
2021/11/16 02:08:20;;;;;;;27.07;14.60;;;8.20;99.90;;;;;;5095370;28;20370;-81
2021/11/16 02:10:49;;;;;;;25.50;16.17;;;8.20;99.90;;;;;;5095120;28;20397;-81
2021/11/16 02:13:19;;;;;;;26.57;15.77;;;8.20;99.90;;;;;;5113172;28;20809;-81
2021/11/16 02:15:46;;;;;;;26.67;16.47;;;8.20;99.90;;;;;;5094553;28;20397;-81
2021/11/16 02:18:15;;;;;;;24.87;14.13;;;8.20;99.90;;;;;;5112465;28;20366;-81
2021/11/16 02:20:43;;;;;;;24.03;15.47;;;8.20;99.90;;;;;;5112994;28;20405;-80
2021/11/16 02:23:09;;;;;;;25.63;15.80;;;8.20;99.90;;;;;;5112802;28;20379;-81
2021/11/16 02:25:37;;;;;;;33.20;15.93;;;8.20;99.90;;;;;;5094703;28;20459;-81
2021/11/16 02:28:04;;;;;;;22.00;13.27;;;8.20;99.90;;;;;;5112844;28;20389;-81
2021/11/16 02:30:30;;;;;;;27.67;14.90;;;8.20;99.90;;;;;;5112634;28;20368;-79
2021/11/16 02:32:57;;;;;;;26.07;15.67;;;8.10;99.90;;;;;;5112799;28;20439;-81
2021/11/16 02:35:25;;;;;;;23.00;16.53;;;8.10;99.90;;;;;;5094623;28;20375;-81
2021/11/16 02:37:52;;;;;;;26.20;15.10;;;8.10;99.90;;;;;;5112420;28;20367;-80
2021/11/16 02:40:18;;;;;;;24.60;14.37;;;8.10;99.90;;;;;;5112822;28;20401;-81
2021/11/16 02:42:44;;;;;;;22.20;13.53;;;8.10;99.90;;;;;;5112201;28;20435;-82
2021/11/16 02:45:11;;;;;;;21.63;15.30;;;8.10;99.90;;;;;;5076982;28;20467;-81
2021/11/16 02:47:38;;;;;;;30.77;16.20;;;8.20;99.90;;;;;;5094645;28;20400;-81
2021/11/16 02:50:05;;;;;;;20.97;13.93;;;8.10;99.90;;;;;;5112149;28;20367;-81
2021/11/16 02:52:30;;;;;;;25.73;15.47;;;8.10;99.90;;;;;;5076912;28;20884;-81
2021/11/16 02:54:56;;;;;;;23.27;15.90;;;8.10;99.90;;;;;;5112126;28;20379;-81
2021/11/16 02:57:22;;;;;;;21.23;12.87;;;8.10;99.90;;;;;;5115492;28;20159;-81
2021/11/16 02:59:49;;;;;;;25.10;13.10;;;8.10;99.90;;;;;;5116420;28;20155;-80
2021/11/16 03:02:15;;;;;;;26.53;16.13;;;8.00;99.90;;;;;;5116354;28;20379;-81
2021/11/16 03:04:45;;;;;;;28.80;16.43;;;8.00;99.90;;;;;;5116151;28;20389;-80
2021/11/16 03:07:14;;;;;;;28.00;14.83;;;8.10;99.90;;;;;;5097683;28;20368;-81
2021/11/16 03:09:49;;;;;;;28.30;15.07;;;8.10;99.90;;;;;;5115723;28;20397;-79
2021/11/16 03:12:15;;;;;;;39.10;16.53;;;8.10;99.90;;;;;;5116069;28;20421;-81
2021/11/16 03:14:41;;;;;;;34.90;16.93;;;8.10;99.90;;;;;;5115759;28;20405;-80
2021/11/16 03:17:06;;;;;;;23.00;15.10;;;8.10;99.90;;;;;;5116031;28;20402;-80
2021/11/16 03:19:33;;;;;;;25.80;14.20;;;8.00;99.90;;;;;;5115343;28;20202;-81
2021/11/16 03:21:59;;;;;;;43.37;16.80;;;8.10;99.90;;;;;;5115672;28;20276;-81
2021/11/16 03:24:31;;;;;;;31.20;15.20;;;8.10;99.90;;;;;;5116308;28;20367;-81
2021/11/16 03:26:57;;;;;;;27.27;16.57;;;8.10;99.90;;;;;;5114893;28;20451;-81
2021/11/16 03:29:26;;;;;;;26.00;14.63;;;8.20;99.90;;;;;;5115468;28;20393;-81
2021/11/16 03:32:04;;;;;;;33.97;17.97;;;8.20;99.90;;;;;;5115192;28;20480;-80
2021/11/16 03:34:30;;;;;;;34.07;17.53;;;8.10;99.90;;;;;;5114750;28;20466;-80
2021/11/16 03:36:56;;;;;;;31.03;15.70;;;8.10;99.90;;;;;;5115133;28;20820;-80
2021/11/16 03:39:22;;;;;;;30.70;17.13;;;8.10;99.90;;;;;;5096935;28;20497;-80
2021/11/16 03:41:49;;;;;;;35.13;15.73;;;8.20;99.90;;;;;;5115149;28;20166;-81
2021/11/16 03:44:15;;;;;;;26.00;15.50;;;8.20;99.90;;;;;;5115036;28;20455;-81
2021/11/16 03:46:41;;;;;;;28.17;16.23;;;8.20;99.90;;;;;;5096806;28;20475;-81
2021/11/16 03:49:10;;;;;;;29.87;15.77;;;8.30;99.90;;;;;;5098411;28;20363;-80
2021/11/16 03:51:36;;;;;;;28.77;16.80;;;8.20;99.90;;;;;;5116596;28;20188;-81
2021/11/16 03:54:05;;;;;;;31.30;14.87;;;8.00;99.90;;;;;;5116475;28;20389;-81
2021/11/16 03:56:30;;;;;;;27.17;16.27;;;7.90;99.90;;;;;;5116858;28;20404;-81
2021/11/16 03:58:59;;;;;;;38.63;18.33;;;7.80;99.90;;;;;;5113633;28;20395;-80
2021/11/16 04:01:26;;;;;;;30.77;17.23;;;7.60;99.90;;;;;;5115590;28;20379;-81
2021/11/16 04:03:53;;;;;;;26.77;16.50;;;7.50;99.90;;;;;;5097635;28;20400;-81
2021/11/16 04:06:21;;;;;;;29.27;18.53;;;7.40;99.90;;;;;;5115528;28;20457;-81
2021/11/16 04:08:47;;;;;;;29.87;16.73;;;7.30;99.90;;;;;;5096317;28;20389;-81
2021/11/16 04:11:13;;;;;;;38.07;17.40;;;7.40;99.90;;;;;;5115332;28;20418;-81
2021/11/16 04:13:39;;;;;;;42.30;17.83;;;7.30;99.90;;;;;;5115115;28;20401;-80
2021/11/16 04:16:06;;;;;;;27.43;15.57;;;7.30;99.90;;;;;;5096838;28;20383;-80
2021/11/16 04:18:33;;;;;;;33.00;16.43;;;7.30;99.90;;;;;;5096875;28;20408;-80
2021/11/16 04:21:20;;;;;;;27.77;15.70;;;7.30;99.90;;;;;;5114969;28;20432;-81
2021/11/16 04:23:47;;;;;;;34.20;17.23;;;7.30;99.90;;;;;;5053375;28;20432;-81
2021/11/16 04:26:13;;;;;;;24.77;15.40;;;7.20;99.90;;;;;;5056324;28;20438;-81
2021/11/16 04:28:40;;;;;;;30.43;14.70;;;7.30;99.90;;;;;;5054246;28;20374;-81
2021/11/16 04:31:07;;;;;;;22.33;15.10;;;7.20;99.90;;;;;;5036488;28;20427;-80
2021/11/16 04:33:33;;;;;;;26.27;13.90;;;7.20;99.90;;;;;;5052523;28;20386;-80
2021/11/16 04:35:59;;;;;;;26.30;13.87;;;7.20;99.90;;;;;;5052881;28;20442;-81
2021/11/16 04:38:25;;;;;;;30.73;17.07;;;7.30;99.90;;;;;;5019747;28;20187;-80
2021/11/16 04:40:54;;;;;;;31.73;15.70;;;7.30;99.90;;;;;;5052811;28;20187;-80
2021/11/16 04:43:24;;;;;;;24.40;15.10;;;7.40;99.90;;;;;;5041395;28;20268;-80
2021/11/16 04:45:54;;;;;;;27.63;13.67;;;7.20;99.90;;;;;;5035091;28;20433;-80
2021/11/16 04:48:42;;;;;;;27.43;14.40;;;7.10;99.90;;;;;;5051620;28;20505;-81
2021/11/16 04:51:36;;;;;;;28.43;15.83;;;7.30;99.90;;;;;;5052379;28;20417;-81
2021/11/16 04:54:12;;;;;;;28.33;16.70;;;7.40;99.90;;;;;;5052481;28;20505;-80
2021/11/16 05:04:39;;;;;;;23.70;14.27;;;7.10;99.90;;;;;;5051940;28;20445;-80
2021/11/16 05:07:12;;;;;;;24.93;14.57;;;7.20;99.90;;;;;;5051792;28;20394;-81
2021/11/16 05:09:39;;;;;;;26.63;15.30;;;7.40;99.90;;;;;;5051666;28;20446;-81
2021/11/16 05:12:07;;;;;;;28.30;16.03;;;7.50;99.90;;;;;;5052033;28;20502;-81
2021/11/16 05:14:32;;;;;;;27.17;15.57;;;7.60;99.90;;;;;;5093054;28;20395;-81
2021/11/16 05:16:58;;;;;;;38.57;17.30;;;7.60;99.90;;;;;;5080002;28;20401;-81
2021/11/16 05:19:24;;;;;;;24.03;15.27;;;7.50;99.90;;;;;;5113394;28;20167;-80
2021/11/16 05:21:50;;;;;;;27.77;14.43;;;7.20;99.90;;;;;;5094755;28;20248;-80
2021/11/16 05:24:16;;;;;;;21.80;12.80;;;7.20;99.90;;;;;;5114609;28;20253;-80
2021/11/16 05:26:44;;;;;;;29.30;15.40;;;7.20;99.90;;;;;;5097418;28;20403;-80
2021/11/16 05:29:10;;;;;;;29.70;13.80;;;7.10;99.90;;;;;;5115104;28;20162;-80
2021/11/16 05:31:36;;;;;;;29.90;14.67;;;7.00;99.90;;;;;;5114305;28;20391;-80
2021/11/16 05:34:02;;;;;;;28.97;13.17;;;7.10;99.90;;;;;;5113271;28;20459;-80
2021/11/16 05:36:28;;;;;;;31.17;17.70;;;7.20;99.90;;;;;;5096290;28;20227;-80
2021/11/16 05:38:54;;;;;;;22.63;13.87;;;7.10;99.90;;;;;;5113853;28;20174;-81
2021/11/16 05:41:20;;;;;;;28.90;15.40;;;7.10;99.90;;;;;;5094254;28;20420;-81
2021/11/16 05:43:47;;;;;;;29.73;15.27;;;7.00;99.90;;;;;;5129113;28;20433;-80
2021/11/16 05:46:23;;;;;;;33.60;16.57;;;7.10;99.90;;;;;;5134368;28;20426;-81
2021/11/16 05:48:51;;;;;;;31.70;15.53;;;7.10;99.90;;;;;;5133985;28;20385;-81
2021/11/16 05:51:19;;;;;;;27.93;15.63;;;7.00;99.90;;;;;;5134100;28;20381;-81
2021/11/16 05:53:50;;;;;;;32.13;14.27;;;7.00;99.90;;;;;;5134923;28;20394;-80
2021/11/16 05:56:19;;;;;;;26.90;15.90;;;7.00;99.90;;;;;;5116583;28;20378;-81
2021/11/16 05:58:45;;;;;;;32.93;14.60;;;7.00;99.90;;;;;;5132765;28;20398;-80
2021/11/16 06:01:11;;;;;;;22.67;14.43;;;7.00;99.90;;;;;;5131462;28;20416;-80
2021/11/16 06:03:37;;;;;;;31.20;13.47;;;7.00;99.90;;;;;;5114362;28;20412;-80
2021/11/16 06:06:02;;;;;;;29.77;16.30;;;6.80;99.90;;;;;;5131898;28;20203;-80
2021/11/16 06:08:29;;;;;;;26.53;15.23;;;6.90;99.90;;;;;;5131337;28;20221;-79
2021/11/16 06:10:56;;;;;;;26.17;14.23;;;6.90;99.90;;;;;;5131943;28;20166;-81
2021/11/16 06:13:23;;;;;;;38.33;17.30;;;6.90;99.90;;;;;;5131959;28;20387;-80
2021/11/16 06:15:49;;;;;;;25.10;13.70;;;6.80;99.90;;;;;;5132412;28;20382;-80
2021/11/16 06:18:19;;;;;;;32.57;16.40;;;6.70;99.90;;;;;;5114075;28;20424;-80
2021/11/16 06:20:46;;;;;;;33.13;16.70;;;6.60;99.90;;;;;;5132411;28;20433;-79
2021/11/16 06:23:12;;;;;;;29.60;16.07;;;6.80;99.90;;;;;;5131644;28;20480;-80
2021/11/16 06:25:40;;;;;;;28.13;17.40;;;6.90;99.90;;;;;;5137487;28;20444;-80
2021/11/16 06:28:05;;;;;;;31.00;15.17;;;6.70;99.90;;;;;;5131101;28;20211;-80
2021/11/16 06:30:51;;;;;;;32.53;16.17;;;6.80;99.90;;;;;;5129486;28;20831;-80
2021/11/16 06:33:22;;;;;;;36.87;17.10;;;7.00;99.90;;;;;;5073368;28;20495;-80
2021/11/16 06:35:48;;;;;;;35.10;16.00;;;7.10;99.90;;;;;;5057367;28;20437;-80
2021/11/16 06:38:14;;;;;;;27.37;14.80;;;7.00;99.90;;;;;;5070263;28;20413;-80
2021/11/16 06:40:41;;;;;;;31.07;15.90;;;6.90;99.90;;;;;;5075058;28;20156;-79
2021/11/16 06:43:06;;;;;;;36.00;17.10;;;6.80;99.90;;;;;;5073067;28;20295;-81
2021/11/16 06:45:36;;;;;;;27.97;15.97;;;6.80;99.90;;;;;;5073207;28;20457;-79
2021/11/16 06:48:02;;;;;;;33.03;18.57;;;6.80;99.90;;;;;;5071566;28;20425;-79
2021/11/16 06:50:27;;;;;;;39.80;17.43;;;6.80;99.90;;;;;;5056822;28;20415;-79
2021/11/16 06:52:54;;;;;;;21.27;13.50;;;6.80;99.90;;;;;;5075064;28;20203;-79
2021/11/16 06:55:19;;;;;;;29.17;16.87;;;6.90;99.90;;;;;;5050101;28;20188;-78
2021/11/16 06:57:47;;;;;;;38.57;18.83;;;7.00;99.90;;;;;;5061768;28;21009;-80
2021/11/16 07:00:13;;;;;;;26.63;16.70;;;7.10;99.90;;;;;;5055193;28;20192;-80
2021/11/16 07:02:40;;;;;;;33.93;16.73;;;7.00;99.90;;;;;;5051312;28;20410;-79
2021/11/16 07:05:13;;;;;;;30.50;14.40;;;6.80;99.90;;;;;;5104319;27;20471;-79
2021/11/16 07:07:45;;;;;;;33.67;17.17;;;6.70;99.90;;;;;;5113846;27;20398;-80
2021/11/16 07:10:15;;;;;;;26.60;17.17;;;6.90;99.90;;;;;;5111590;28;20439;-80
2021/11/16 07:12:43;;;;;;;41.70;14.93;;;6.90;99.90;;;;;;5088884;28;20802;-79
2021/11/16 07:15:15;;;;;;;34.00;15.63;;;7.00;99.90;;;;;;5118676;28;20410;-80
2021/11/16 07:17:41;;;;;;;31.07;15.00;;;7.10;99.90;;;;;;5081588;28;20434;-80
2021/11/16 07:20:09;;;;;;;28.20;13.90;;;7.20;99.90;;;;;;5102659;28;20394;-79
2021/11/16 07:22:37;;;;;;;43.43;19.00;;;7.00;99.90;;;;;;5106428;28;20456;-80
2021/11/16 07:25:08;;;;;;;34.70;15.07;;;7.10;99.90;;;;;;5095471;28;20455;-79
2021/11/16 07:27:37;;;;;;;27.03;14.63;;;6.80;99.90;;;;;;5113528;28;20441;-81
2021/11/16 07:30:11;;;;;;;31.50;15.27;;;6.80;99.90;;;;;;5115616;28;20514;-79
2021/11/16 07:32:52;;;;;;;26.20;15.90;;;7.00;99.90;;;;;;5115277;28;20445;-80
2021/11/16 07:35:25;;;;;;;32.67;16.00;;;6.80;99.90;;;;;;5117652;28;20422;-80
2021/11/16 07:37:56;;;;;;;35.63;19.60;;;6.80;99.90;;;;;;5110925;28;20749;-79
2021/11/16 07:40:23;;;;;;;24.67;14.87;;;6.90;99.90;;;;;;5118522;28;20402;-80
2021/11/16 07:42:54;;;;;;;34.23;17.53;;;7.00;99.90;;;;;;5073506;28;20434;-80
2021/11/16 07:45:23;;;;;;;32.23;18.40;;;6.90;99.90;;;;;;5112370;28;20433;-80
2021/11/16 07:47:55;;;;;;;28.57;14.80;;;7.10;99.90;;;;;;5116511;28;20488;-79
2021/11/16 07:50:38;;;;;;;31.83;16.97;;;7.10;99.90;;;;;;5109299;28;20413;-80
2021/11/16 07:53:18;;;;;;;32.43;18.27;;;6.90;99.90;;;;;;5112142;28;20460;-81
2021/11/16 07:55:58;;;;;;;33.90;15.57;;;7.10;99.90;;;;;;5120371;27;20391;-81
2021/11/16 07:58:31;;;;;;;33.23;17.40;;;7.00;99.90;;;;;;5115542;28;20427;-81
2021/11/16 08:01:01;;;;;;;36.80;15.80;;;7.00;99.90;;;;;;5110655;28;20475;-80
2021/11/16 08:03:36;;;;;;;33.90;15.33;;;6.80;99.90;;;;;;5115608;28;20423;-80
2021/11/16 08:06:12;;;;;;;32.27;18.23;;;7.00;99.90;;;;;;5119487;27;20804;-80
2021/11/16 08:09:03;;;;;;;36.50;17.47;;;6.90;99.90;;;;;;5118477;28;20446;-79
2021/11/16 08:11:29;;;;;;;27.90;16.17;;;7.00;99.90;;;;;;5123366;28;20414;-78
2021/11/16 08:14:00;;;;;;;31.73;17.20;;;7.20;99.90;;;;;;5106063;28;20406;-78
2021/11/16 08:16:28;;;;;;;29.50;18.50;;;7.20;99.90;;;;;;5127103;27;20532;-79
2021/11/16 08:19:05;;;;;;;41.87;15.80;;;7.10;99.90;;;;;;5125204;28;20528;-80
2021/11/16 08:21:33;;;;;;;33.03;16.70;;;6.90;99.90;;;;;;5124507;27;20457;-81
2021/11/16 08:24:06;;;;;;;46.73;18.90;;;7.10;99.90;;;;;;5124452;28;20417;-79
2021/11/16 08:26:35;;;;;;;35.83;17.30;;;7.30;99.90;;;;;;5114784;28;20442;-80
2021/11/16 08:29:03;;;;;;;42.33;18.80;;;7.10;99.90;;;;;;5095985;28;20720;-80
2021/11/16 08:31:34;;;;;;;31.90;18.27;;;7.20;99.90;;;;;;5080897;28;20443;-80
2021/11/16 08:34:00;;;;;;;29.40;16.50;;;7.20;99.90;;;;;;5116633;27;20456;-81
2021/11/16 08:36:28;;;;;;;42.60;19.40;;;7.10;99.90;;;;;;5120458;27;20431;-82
2021/11/16 08:38:56;;;;;;;33.27;17.37;;;7.00;99.90;;;;;;5115072;28;20512;-81
2021/11/16 08:41:30;;;;;;;38.27;17.63;;;7.20;99.90;;;;;;5100933;28;20443;-81
2021/11/16 08:44:15;;;;;;;36.63;18.40;;;7.20;99.90;;;;;;5121951;27;20442;-79
2021/11/16 08:46:43;;;;;;;32.63;17.93;;;7.40;99.90;;;;;;5116528;27;20468;-80
2021/11/16 08:49:24;;;;;;;31.50;19.07;;;7.30;99.90;;;;;;5118391;28;20409;-81
2021/11/16 08:51:51;;;;;;;29.43;17.17;;;7.30;99.90;;;;;;5075518;28;20458;-79
2021/11/16 08:54:27;;;;;;;29.20;14.57;;;7.20;99.90;;;;;;5118967;28;20526;-80
2021/11/16 08:56:53;;;;;;;38.40;18.83;;;7.10;99.90;;;;;;5118530;28;20432;-80
2021/11/16 08:59:20;;;;;;;31.60;16.60;;;7.00;99.90;;;;;;5126779;27;20422;-79
2021/11/16 09:02:04;;;;;;;35.23;17.13;;;7.00;99.90;;;;;;5125426;27;20185;-80
2021/11/16 09:04:33;;;;;;;31.63;16.90;;;7.20;99.90;;;;;;5127177;28;20473;-79
2021/11/16 09:07:18;;;;;;;33.83;15.00;;;7.00;99.90;;;;;;5121599;28;20475;-81
2021/11/16 09:09:54;;;;;;;40.73;20.50;;;7.20;99.90;;;;;;5094510;28;20402;-81
2021/11/16 09:12:30;;;;;;;34.93;17.13;;;7.20;99.90;;;;;;5090180;28;20469;-80
2021/11/16 09:14:57;;;;;;;32.73;16.33;;;7.10;99.90;;;;;;5126739;27;20438;-81
2021/11/16 09:17:23;;;;;;;28.10;17.80;;;7.10;99.90;;;;;;5041536;28;20412;-82
2021/11/16 09:19:49;;;;;;;38.60;19.60;;;6.90;99.90;;;;;;4995313;28;20418;-80
2021/11/16 09:22:18;;;;;;;38.67;18.43;;;7.00;99.90;;;;;;5030207;28;20441;-81
2021/11/16 09:24:48;;;;;;;33.40;16.93;;;7.00;99.90;;;;;;5030329;28;20765;-82
2021/11/16 09:27:35;;;;;;;31.27;15.90;;;7.10;99.90;;;;;;4987028;28;20429;-80
2021/11/16 09:30:01;;;;;;;35.50;20.57;;;7.20;99.90;;;;;;5004243;28;20482;-80
2021/11/16 09:32:30;;;;;;;36.13;18.13;;;7.40;99.90;;;;;;5012217;28;20451;-80
2021/11/16 09:34:58;;;;;;;44.53;18.10;;;7.40;99.90;;;;;;5049414;28;20423;-79
2021/11/16 09:37:27;;;;;;;35.83;18.47;;;7.30;99.90;;;;;;5057986;28;20470;-80
2021/11/16 09:39:59;;;;;;;32.30;18.90;;;7.50;99.90;;;;;;5016514;28;20386;-79
2021/11/16 09:42:33;;;;;;;36.10;19.00;;;7.60;99.90;;;;;;5008056;28;20438;-80
2021/11/16 09:45:08;;;;;;;42.57;19.60;;;7.30;99.90;;;;;;5018222;28;20431;-81
2021/11/16 09:47:42;;;;;;;34.20;16.40;;;7.40;99.90;;;;;;4995702;28;20399;-80
2021/11/16 09:50:16;;;;;;;36.30;18.00;;;7.30;99.90;;;;;;5058063;28;20404;-79
2021/11/16 09:52:47;;;;;;;36.57;18.73;;;7.20;99.90;;;;;;5085399;28;20406;-79
2021/11/16 09:55:18;;;;;;;30.73;16.60;;;7.30;99.90;;;;;;5095637;28;20426;-79
2021/11/16 09:57:50;;;;;;;36.37;16.93;;;7.40;99.90;;;;;;5113814;28;20470;-80
2021/11/16 10:00:30;;;;;;;29.53;16.87;;;7.40;99.90;;;;;;5115209;27;20402;-80
2021/11/16 10:03:08;;;;;;;45.30;18.90;;;7.40;99.90;;;;;;5112235;28;20898;-80
2021/11/16 10:05:39;;;;;;;34.53;16.80;;;7.60;99.90;;;;;;5114700;28;20438;-80
2021/11/16 10:08:07;;;;;;;34.50;17.23;;;8.00;99.90;;;;;;5099168;28;20490;-80
2021/11/16 10:10:38;;;;;;;38.60;19.77;;;8.20;99.90;;;;;;5032486;28;20504;-80
2021/11/16 10:13:11;;;;;;;37.80;18.87;;;8.40;99.90;;;;;;5069102;28;20385;-81
2021/11/16 10:16:03;;;;;;;37.33;17.80;;;8.30;99.90;;;;;;5047262;28;20410;-80
2021/11/16 10:18:49;;;;;;;31.63;18.80;;;7.90;99.90;;;;;;4983729;28;20400;-81
2021/11/16 10:21:16;;;;;;;28.87;16.73;;;7.70;99.90;;;;;;4919447;29;20439;-81
2021/11/16 10:23:47;;;;;;;37.53;18.20;;;7.90;99.90;;;;;;4915064;29;20407;-80
2021/11/16 10:26:14;;;;;;;32.80;18.63;;;7.90;99.90;;;;;;4880064;29;20450;-81
2021/11/16 10:28:46;;;;;;;31.20;17.40;;;7.90;99.90;;;;;;4895164;29;20860;-81
2021/11/16 10:31:12;;;;;;;31.13;17.80;;;8.10;99.90;;;;;;4892323;29;20546;-81
2021/11/16 10:33:44;;;;;;;32.93;16.60;;;7.90;99.90;;;;;;4880424;29;20438;-79
2021/11/16 10:36:13;;;;;;;30.63;17.57;;;7.80;99.90;;;;;;4878257;29;20497;-79
2021/11/16 10:38:45;;;;;;;33.60;18.03;;;7.90;99.90;;;;;;4889756;29;20429;-79
2021/11/16 10:41:15;;;;;;;33.50;18.20;;;8.10;99.90;;;;;;4897392;29;20444;-79
2021/11/16 10:43:50;;;;;;;36.00;20.00;;;8.00;99.90;;;;;;4908509;29;20992;-79
2021/11/16 10:46:19;;;;;;;36.77;19.07;;;8.00;99.90;;;;;;4918549;29;21049;-79
2021/11/16 10:48:46;;;;;;;26.07;15.20;;;7.90;99.90;;;;;;4952206;28;20421;-80
2021/11/16 10:51:14;;;;;;;33.30;18.53;;;7.90;99.90;;;;;;4976618;28;20527;-81
2021/11/16 10:53:50;;;;;;;35.37;19.67;;;7.80;99.90;;;;;;5004249;28;20395;-81
2021/11/16 10:56:18;;;;;;;37.40;19.00;;;8.20;99.90;;;;;;5018957;28;20409;-81
2021/11/16 10:58:46;;;;;;;31.43;16.50;;;8.40;99.90;;;;;;5068421;28;20514;-81
2021/11/16 11:01:17;;;;;;;34.67;20.47;;;8.50;99.90;;;;;;5085814;28;20416;-80
2021/11/16 11:03:48;;;;;;;41.63;19.00;;;8.00;99.90;;;;;;5076338;28;20426;-79
2021/11/16 11:06:19;;;;;;;27.73;18.03;;;8.30;99.90;;;;;;5076311;28;20459;-80
2021/11/16 11:08:51;;;;;;;32.50;19.10;;;8.50;99.90;;;;;;5075411;28;20483;-81
2021/11/16 11:11:25;;;;;;;31.80;16.53;;;8.60;99.90;;;;;;5090959;28;20856;-80
2021/11/16 11:14:01;;;;;;;32.57;18.70;;;8.70;99.90;;;;;;5077831;28;20399;-80
2021/11/16 11:16:27;;;;;;;36.13;18.90;;;8.50;99.90;;;;;;5094752;28;20790;-81
2021/11/16 11:18:55;;;;;;;31.80;17.20;;;8.50;99.90;;;;;;5100386;28;20519;-82
2021/11/16 11:21:37;;;;;;;37.37;19.17;;;8.60;99.90;;;;;;5073449;28;20423;-80
2021/11/16 11:24:17;;;;;;;34.53;18.23;;;8.60;99.90;;;;;;5073361;28;20818;-80
2021/11/16 11:26:46;;;;;;;39.87;18.43;;;8.80;99.90;;;;;;5060408;28;20463;-82
2021/11/16 11:29:37;;;;;;;33.20;19.47;;;8.80;99.90;;;;;;5084509;28;20440;-81
2021/11/16 11:32:15;;;;;;;30.00;18.23;;;8.50;99.90;;;;;;5065221;28;20479;-81
2021/11/16 11:34:59;;;;;;;30.10;17.57;;;8.40;99.90;;;;;;5101965;28;20404;-80
2021/11/16 11:37:46;;;;;;;31.63;18.10;;;8.50;99.90;;;;;;5072162;28;20399;-80
2021/11/16 11:40:31;;;;;;;37.90;18.30;;;8.70;99.90;;;;;;5093090;28;20768;-81
2021/11/16 11:43:02;;;;;;;29.57;18.23;;;8.80;99.90;;;;;;5082195;27;20462;-80
2021/11/16 11:45:32;;;;;;;43.63;17.73;;;8.80;99.90;;;;;;5096861;27;20513;-80
2021/11/16 11:48:17;;;;;;;35.50;18.77;;;8.80;99.90;;;;;;5111636;27;20504;-80
2021/11/16 11:51:11;;;;;;;32.80;17.93;;;8.90;99.90;;;;;;5087683;28;20430;-77
2021/11/16 11:53:41;;;;;;;31.80;17.10;;;8.40;99.90;;;;;;5091867;27;20403;-80
2021/11/16 11:56:18;;;;;;;29.27;17.20;;;8.40;99.90;;;;;;5063127;28;20524;-80
2021/11/16 11:58:47;;;;;;;35.73;19.77;;;8.50;99.90;;;;;;5012557;28;20442;-79
2021/11/16 12:01:16;;;;;;;45.97;19.30;;;8.60;99.90;;;;;;5034785;28;20947;-79
2021/11/16 12:03:45;;;;;;;30.00;16.30;;;8.70;99.90;;;;;;5017705;28;20403;-79
2021/11/16 12:06:11;;;;;;;41.83;20.67;;;8.80;99.90;;;;;;5018539;28;21031;-80
2021/11/16 12:08:38;;;;;;;31.10;19.33;;;8.90;99.90;;;;;;5035020;28;20484;-79
2021/11/16 12:11:05;;;;;;;34.30;18.10;;;8.90;99.90;;;;;;5047180;28;20542;-79
2021/11/16 12:13:34;;;;;;;32.60;17.70;;;9.00;99.90;;;;;;5030738;28;20461;-79
2021/11/16 12:16:12;;;;;;;44.77;21.67;;;9.00;99.90;;;;;;5035139;28;20503;-80
2021/11/16 12:18:43;;;;;;;26.70;15.90;;;8.80;99.90;;;;;;5046616;28;20422;-80
2021/11/16 12:21:27;;;;;;;45.80;20.00;;;8.90;99.90;;;;;;5047554;28;20454;-80
2021/11/16 12:23:58;;;;;;;28.90;16.33;;;9.00;99.90;;;;;;5045765;28;20419;-79
2021/11/16 12:26:31;;;;;;;30.10;16.30;;;8.90;99.90;;;;;;5051048;28;20458;-81
2021/11/16 12:29:18;;;;;;;35.07;18.13;;;8.80;99.90;;;;;;5064458;28;20511;-81
2021/11/16 12:31:46;;;;;;;45.83;18.27;;;8.90;99.90;;;;;;5090104;27;20907;-82
2021/11/16 12:34:30;;;;;;;30.73;19.40;;;9.00;99.90;;;;;;5096913;27;20431;-81
2021/11/16 12:36:56;;;;;;;36.97;20.47;;;9.00;99.90;;;;;;5111595;28;20419;-80
2021/11/16 12:39:25;;;;;;;32.50;18.63;;;9.00;99.90;;;;;;5124079;28;20494;-82
2021/11/16 12:42:06;;;;;;;41.30;24.03;;;9.00;99.90;;;;;;5111596;28;20463;-83
2021/11/16 12:44:56;;;;;;;34.93;18.87;;;9.00;99.90;;;;;;5113255;28;20539;-81
2021/11/16 12:47:21;;;;;;;40.47;19.87;;;9.00;99.90;;;;;;5125687;28;20543;-81
2021/11/16 12:49:48;;;;;;;28.30;18.23;;;9.00;99.90;;;;;;5098880;28;20422;-80
2021/11/16 12:52:21;;;;;;;32.43;18.63;;;8.90;99.90;;;;;;5117216;27;20207;-81
2021/11/16 12:54:48;;;;;;;30.67;17.87;;;8.90;99.90;;;;;;5128193;27;20394;-82
2021/11/16 12:57:19;;;;;;;28.43;17.17;;;8.90;99.90;;;;;;5128430;27;20422;-82